createdAt,value
2017-12-30T00:00:30.904Z,5.36
2017-12-30T00:01:30.909Z,5.41
2017-12-30T00:02:30.361Z,5.38
2017-12-30T00:03:30.623Z,5.39
2017-12-30T00:04:30.600Z,5.43
2017-12-30T00:05:30.866Z,5.41
2017-12-30T00:06:30.859Z,5.3
2017-12-30T00:07:30.562Z,5.28
2017-12-30T00:08:30.322Z,5.29
2017-12-30T00:09:30.602Z,5.26
2017-12-30T00:10:30.545Z,5.25
2017-12-30T00:11:30.555Z,5.3
2017-12-30T00:12:30.840Z,5.28
2017-12-30T00:13:30.794Z,5.32
2017-12-30T00:14:30.407Z,5.32
2017-12-30T00:15:30.269Z,5.3
2017-12-30T00:16:30.759Z,5.26
2017-12-30T00:17:30.487Z,5.29
2017-12-30T00:18:30.732Z,5.23
2017-12-30T00:19:30.731Z,5.12
2017-12-30T00:20:30.723Z,5.15
2017-12-30T00:21:30.213Z,5.1
2017-12-30T00:22:30.195Z,5.12
2017-12-30T00:23:30.463Z,5.14
2017-12-30T00:24:30.691Z,5.1
2017-12-30T00:25:30.176Z,5.11
2017-12-30T00:26:30.426Z,5.1
2017-12-30T00:27:30.682Z,5.02
2017-12-30T00:28:30.410Z,5.05
2017-12-30T00:29:30.708Z,5.02
2017-12-30T00:30:30.374Z,5.02
2017-12-30T00:31:30.391Z,4.96
2017-12-30T00:32:30.622Z,4.97
2017-12-30T00:33:30.615Z,5.02
2017-12-30T00:34:30.349Z,4.92
2017-12-30T00:35:30.084Z,4.96
2017-12-30T00:36:30.334Z,4.97
2017-12-30T00:37:30.065Z,4.94
2017-12-30T00:38:30.604Z,4.86
2017-12-30T00:39:30.318Z,4.92
2017-12-30T00:40:30.299Z,4.94
2017-12-30T00:41:30.515Z,4.92
2017-12-30T00:42:30.534Z,4.86
2017-12-30T00:43:30.247Z,4.87
2017-12-30T00:44:30.553Z,4.84
2017-12-30T00:45:30.262Z,4.87
2017-12-30T00:46:29.996Z,4.84
2017-12-30T00:47:30.227Z,4.82
2017-12-30T00:48:30.494Z,4.84
2017-12-30T00:49:30.467Z,4.84
2017-12-30T00:50:30.470Z,4.84
2017-12-30T00:51:30.210Z,4.8
2017-12-30T00:52:29.939Z,4.71
2017-12-30T00:53:30.174Z,4.77
2017-12-30T00:54:30.162Z,4.75
2017-12-30T00:55:30.160Z,4.74
2017-12-30T00:56:30.417Z,4.8
2017-12-30T00:57:30.416Z,4.67
2017-12-30T00:58:30.125Z,4.77
2017-12-30T00:59:30.394Z,4.66
2017-12-30T01:00:30.385Z,4.59
2017-12-30T01:01:30.103Z,4.67
2017-12-30T01:02:30.351Z,4.73
2017-12-30T01:03:30.092Z,4.63
2017-12-30T01:04:29.849Z,4.68
2017-12-30T01:05:30.351Z,4.67
2017-12-30T01:06:30.335Z,4.6
2017-12-30T01:07:30.042Z,4.58
2017-12-30T01:08:30.038Z,4.63
2017-12-30T01:09:30.036Z,4.67
2017-12-30T01:10:30.026Z,4.53
2017-12-30T01:11:30.017Z,4.53
2017-12-30T01:12:30.007Z,4.48
2017-12-30T01:13:30.253Z,4.58
2017-12-30T01:14:29.989Z,4.5
2017-12-30T01:15:29.988Z,4.5
2017-12-30T01:16:30.223Z,4.44
2017-12-30T01:17:30.212Z,4.38
2017-12-30T01:18:29.957Z,4.28
2017-12-30T01:19:29.948Z,4.28
2017-12-30T01:20:29.683Z,4.3
2017-12-30T01:21:30.181Z,4.31
2017-12-30T01:22:30.171Z,4.24
2017-12-30T01:23:29.909Z,4.26
2017-12-30T01:24:30.158Z,4.24
2017-12-30T01:25:29.645Z,4.22
2017-12-30T01:26:30.132Z,4.06
2017-12-30T01:27:30.128Z,4.05
2017-12-30T01:28:29.864Z,4.05
2017-12-30T01:29:29.603Z,4.06
2017-12-30T01:30:29.747Z,4.04
2017-12-30T01:31:30.086Z,4.08
2017-12-30T01:32:30.078Z,4.05
2017-12-30T01:33:30.071Z,4.05
2017-12-30T01:34:30.058Z,4.04
2017-12-30T01:35:29.815Z,4.05
2017-12-30T01:36:30.041Z,4.13
2017-12-30T01:37:29.794Z,4.04
2017-12-30T01:38:30.027Z,3.98
2017-12-30T01:39:29.772Z,3.96
2017-12-30T01:40:29.520Z,3.95
2017-12-30T01:41:29.998Z,3.98
2017-12-30T01:42:29.781Z,3.84
2017-12-30T01:43:30.013Z,3.92
2017-12-30T01:44:29.999Z,3.86
2017-12-30T01:45:29.985Z,3.81
2017-12-30T01:46:29.957Z,3.83
2017-12-30T01:47:29.697Z,3.81
2017-12-30T01:48:29.431Z,3.88
2017-12-30T01:49:29.934Z,3.86
2017-12-30T01:50:29.926Z,3.87
2017-12-30T01:51:29.667Z,3.87
2017-12-30T01:52:29.922Z,3.91
2017-12-30T01:53:29.392Z,4.02
2017-12-30T01:54:29.883Z,4.05
2017-12-30T01:55:29.867Z,4.1
2017-12-30T01:56:29.609Z,4.14
2017-12-30T01:57:29.846Z,4.16
2017-12-30T01:58:29.855Z,4.19
2017-12-30T01:59:29.837Z,4.16
2017-12-30T02:00:29.834Z,4.28
2017-12-30T02:01:29.821Z,4.22
2017-12-30T02:02:29.563Z,4.26
2017-12-30T02:03:29.550Z,4.31
2017-12-30T02:04:29.536Z,4.38
2017-12-30T02:05:29.778Z,4.45
2017-12-30T02:06:29.521Z,4.41
2017-12-30T02:07:29.758Z,4.52
2017-12-30T02:08:29.755Z,4.55
2017-12-30T02:09:29.739Z,4.6
2017-12-30T02:10:29.754Z,4.62
2017-12-30T02:11:29.738Z,4.66
2017-12-30T02:12:29.718Z,4.63
2017-12-30T02:13:29.461Z,4.63
2017-12-30T02:14:29.448Z,4.59
2017-12-30T02:15:32.953Z,4.63
2017-12-30T02:16:29.431Z,4.73
2017-12-30T02:17:29.670Z,4.73
2017-12-30T02:18:29.456Z,4.66
2017-12-30T02:19:29.698Z,4.75
2017-12-30T02:20:29.394Z,4.75
2017-12-30T02:21:29.385Z,4.78
2017-12-30T02:22:29.633Z,4.8
2017-12-30T02:23:29.625Z,4.8
2017-12-30T02:24:29.609Z,4.77
2017-12-30T02:25:29.599Z,4.87
2017-12-30T02:26:29.340Z,4.87
2017-12-30T02:27:29.085Z,4.8
2017-12-30T02:28:29.324Z,4.74
2017-12-30T02:29:29.313Z,4.77
2017-12-30T02:30:29.567Z,4.8
2017-12-30T02:31:29.298Z,4.77
2017-12-30T02:32:29.288Z,4.75
2017-12-30T02:33:29.285Z,4.75
2017-12-30T02:34:29.274Z,4.73
2017-12-30T02:35:29.519Z,4.62
2017-12-30T02:36:29.254Z,4.59
2017-12-30T02:37:29.516Z,4.63
2017-12-30T02:38:29.489Z,4.59
2017-12-30T02:39:29.486Z,4.6
2017-12-30T02:40:29.254Z,4.59
2017-12-30T02:41:29.213Z,4.6
2017-12-30T02:42:29.215Z,4.49
2017-12-30T02:43:29.213Z,4.55
2017-12-30T02:44:29.213Z,4.53
2017-12-30T02:45:29.222Z,4.49
2017-12-30T02:46:31.571Z,4.5
2017-12-30T02:47:29.408Z,4.44
2017-12-30T02:48:29.401Z,4.52
2017-12-30T02:49:29.162Z,4.58
2017-12-30T02:50:29.396Z,4.55
2017-12-30T02:51:29.376Z,4.62
2017-12-30T02:52:29.400Z,4.58
2017-12-30T02:53:29.121Z,4.44
2017-12-30T02:54:29.360Z,4.52
2017-12-30T02:55:29.335Z,4.6
2017-12-30T02:56:29.109Z,4.56
2017-12-30T02:57:29.088Z,4.6
2017-12-30T02:58:29.072Z,4.58
2017-12-30T02:59:29.062Z,4.56
2017-12-30T03:00:29.306Z,4.63
2017-12-30T03:01:30.238Z,4.48
2017-12-30T03:02:29.023Z,4.52
2017-12-30T03:03:29.269Z,4.58
2017-12-30T03:04:29.044Z,4.59
2017-12-30T03:05:28.766Z,4.6
2017-12-30T03:06:29.240Z,4.59
2017-12-30T03:07:29.239Z,4.55
2017-12-30T03:08:29.234Z,4.6
2017-12-30T03:09:28.980Z,4.59
2017-12-30T03:10:28.698Z,4.5
2017-12-30T03:11:29.207Z,4.59
2017-12-30T03:12:28.950Z,4.56
2017-12-30T03:13:29.182Z,4.62
2017-12-30T03:14:29.199Z,4.59
2017-12-30T03:15:28.925Z,4.5
2017-12-30T03:16:28.898Z,4.49
2017-12-30T03:17:29.169Z,4.45
2017-12-30T03:18:28.884Z,4.41
2017-12-30T03:19:29.141Z,4.4
2017-12-30T03:20:29.150Z,4.49
2017-12-30T03:21:28.852Z,4.48
2017-12-30T03:22:28.843Z,4.44
2017-12-30T03:23:29.113Z,4.53
2017-12-30T03:24:28.824Z,4.52
2017-12-30T03:25:28.827Z,4.5
2017-12-30T03:26:29.075Z,4.52
2017-12-30T03:27:28.801Z,4.49
2017-12-30T03:28:29.068Z,4.55
2017-12-30T03:29:28.790Z,4.59
2017-12-30T03:30:28.775Z,4.55
2017-12-30T03:31:29.047Z,4.53
2017-12-30T03:32:28.502Z,4.5
2017-12-30T03:33:28.756Z,4.52
2017-12-30T03:34:28.734Z,4.44
2017-12-30T03:35:29.006Z,4.41
2017-12-30T03:36:28.726Z,4.42
2017-12-30T03:37:28.455Z,4.34
2017-12-30T03:38:28.955Z,4.38
2017-12-30T03:39:28.699Z,4.32
2017-12-30T03:40:28.942Z,4.32
2017-12-30T03:41:28.675Z,4.28
2017-12-30T03:42:28.662Z,4.28
2017-12-30T03:43:28.906Z,4.28
2017-12-30T03:44:28.392Z,4.31
2017-12-30T03:45:28.899Z,4.37
2017-12-30T03:46:28.876Z,4.32
2017-12-30T03:47:28.871Z,4.28
2017-12-30T03:48:28.859Z,4.3
2017-12-30T03:49:28.608Z,4.32
2017-12-30T03:50:28.597Z,4.24
2017-12-30T03:51:28.839Z,4.24
2017-12-30T03:52:28.575Z,4.35
2017-12-30T03:53:28.823Z,4.35
2017-12-30T03:54:28.814Z,4.31
2017-12-30T03:55:28.798Z,4.34
2017-12-30T03:56:28.298Z,4.38
2017-12-30T03:57:28.528Z,4.35
2017-12-30T03:58:28.526Z,4.32
2017-12-30T03:59:28.516Z,4.32
2017-12-30T04:00:28.505Z,4.34
2017-12-30T04:01:28.746Z,4.38
2017-12-30T04:02:29.024Z,4.37
2017-12-30T04:03:28.749Z,4.32
2017-12-30T04:04:28.724Z,4.26
2017-12-30T04:05:28.456Z,4.3
2017-12-30T04:06:28.204Z,4.31
2017-12-30T04:07:28.703Z,4.32
2017-12-30T04:08:28.692Z,4.24
2017-12-30T04:09:28.686Z,4.37
2017-12-30T04:10:28.443Z,4.32
2017-12-30T04:11:28.656Z,4.4
2017-12-30T04:12:28.153Z,4.37
2017-12-30T04:13:28.437Z,4.4
2017-12-30T04:14:28.387Z,4.4
2017-12-30T04:15:28.372Z,4.4
2017-12-30T04:16:28.616Z,4.37
2017-12-30T04:17:28.354Z,4.4
2017-12-30T04:18:28.344Z,4.35
2017-12-30T04:19:28.587Z,4.35
2017-12-30T04:20:28.335Z,4.32
2017-12-30T04:21:28.316Z,4.34
2017-12-30T04:22:28.560Z,4.37
2017-12-30T04:23:28.305Z,4.34
2017-12-30T04:24:28.291Z,4.32
2017-12-30T04:25:28.282Z,4.32
2017-12-30T04:26:28.025Z,4.24
2017-12-30T04:27:28.263Z,4.24
2017-12-30T04:28:28.514Z,4.28
2017-12-30T04:29:28.247Z,4.31
2017-12-30T04:30:27.993Z,4.19
2017-12-30T04:31:28.235Z,4.16
2017-12-30T04:32:29.304Z,4.14
2017-12-30T04:33:28.472Z,4.2
2017-12-30T04:34:28.212Z,4.24
2017-12-30T04:35:28.194Z,4.13
2017-12-30T04:36:28.438Z,4.17
2017-12-30T04:37:28.429Z,4.17
2017-12-30T04:38:28.165Z,4.14
2017-12-30T04:39:28.410Z,4.12
2017-12-30T04:40:28.147Z,4.08
2017-12-30T04:41:28.144Z,4.13
2017-12-30T04:42:28.381Z,4.04
2017-12-30T04:43:28.120Z,4.04
2017-12-30T04:44:28.361Z,4.05
2017-12-30T04:45:28.359Z,4.04
2017-12-30T04:46:28.100Z,4.01
2017-12-30T04:47:28.086Z,3.98
2017-12-30T04:48:27.823Z,3.84
2017-12-30T04:49:28.068Z,3.84
2017-12-30T04:50:28.062Z,3.86
2017-12-30T04:51:27.800Z,3.81
2017-12-30T04:52:28.041Z,3.86
2017-12-30T04:53:28.298Z,3.83
2017-12-30T04:54:28.277Z,3.78
2017-12-30T04:55:28.261Z,3.74
2017-12-30T04:56:28.260Z,3.74
2017-12-30T04:57:27.992Z,3.76
2017-12-30T04:58:27.729Z,3.76
2017-12-30T04:59:28.233Z,3.87
2017-12-30T05:00:28.235Z,3.78
2017-12-30T05:01:28.208Z,3.8
2017-12-30T05:02:28.202Z,3.81
2017-12-30T05:03:27.939Z,3.88
2017-12-30T05:04:28.187Z,3.91
2017-12-30T05:05:27.926Z,3.94
2017-12-30T05:06:27.917Z,3.87
2017-12-30T05:07:27.651Z,3.84
2017-12-30T05:08:28.156Z,3.91
2017-12-30T05:09:27.634Z,4.01
2017-12-30T05:10:28.128Z,3.98
2017-12-30T05:11:27.865Z,4.01
2017-12-30T05:12:28.117Z,3.99
2017-12-30T05:13:28.104Z,4.06
2017-12-30T05:14:28.091Z,4.08
2017-12-30T05:15:27.837Z,4.04
2017-12-30T05:16:27.834Z,4.04
2017-12-30T05:17:28.067Z,4.12
2017-12-30T05:18:27.806Z,4.22
2017-12-30T05:19:28.045Z,4.17
2017-12-30T05:20:27.790Z,4.17
2017-12-30T05:21:28.035Z,4.31
2017-12-30T05:22:27.795Z,4.28
2017-12-30T05:23:28.022Z,4.28
2017-12-30T05:24:27.507Z,4.34
2017-12-30T05:25:27.991Z,4.34
2017-12-30T05:26:27.993Z,4.34
2017-12-30T05:27:27.980Z,4.41
2017-12-30T05:28:27.973Z,4.34
2017-12-30T05:29:27.709Z,4.37
2017-12-30T05:30:27.718Z,4.32
2017-12-30T05:31:27.711Z,4.22
2017-12-30T05:32:27.933Z,4.26
2017-12-30T05:33:27.924Z,4.37
2017-12-30T05:34:27.691Z,4.28
2017-12-30T05:35:27.931Z,4.35
2017-12-30T05:36:27.907Z,4.34
2017-12-30T05:37:27.906Z,4.37
2017-12-30T05:38:27.879Z,4.44
2017-12-30T05:39:27.875Z,4.52
2017-12-30T05:40:27.870Z,4.53
2017-12-30T05:41:27.604Z,4.52
2017-12-30T05:42:27.854Z,4.52
2017-12-30T05:43:27.584Z,4.52
2017-12-30T05:44:27.835Z,4.58
2017-12-30T05:45:27.817Z,4.53
2017-12-30T05:46:27.562Z,4.56
2017-12-30T05:47:27.596Z,4.58
2017-12-30T05:48:27.812Z,4.55
2017-12-30T05:49:27.277Z,4.59
2017-12-30T05:50:27.522Z,4.59
2017-12-30T05:51:27.596Z,4.59
2017-12-30T05:52:27.780Z,4.49
2017-12-30T05:53:27.814Z,4.56
2017-12-30T05:54:27.755Z,4.55
2017-12-30T05:55:27.737Z,4.56
2017-12-30T05:56:27.735Z,4.58
2017-12-30T05:57:27.723Z,4.58
2017-12-30T05:58:27.721Z,4.52
2017-12-30T05:59:27.705Z,4.48
2017-12-30T06:00:27.448Z,4.5
2017-12-30T06:01:27.697Z,4.52
2017-12-30T06:02:27.420Z,4.58
2017-12-30T06:03:32.224Z,4.66
2017-12-30T06:04:27.653Z,4.59
2017-12-30T06:05:27.397Z,4.58
2017-12-30T06:06:27.133Z,4.58
2017-12-30T06:07:27.382Z,4.67
2017-12-30T06:08:27.623Z,4.67
2017-12-30T06:09:27.359Z,4.62
2017-12-30T06:10:27.350Z,4.71
2017-12-30T06:11:27.102Z,4.62
2017-12-30T06:12:27.588Z,4.73
2017-12-30T06:13:27.576Z,4.73
2017-12-30T06:14:27.320Z,4.74
2017-12-30T06:15:27.566Z,4.71
2017-12-30T06:16:27.575Z,4.73
2017-12-30T06:17:27.344Z,4.74
2017-12-30T06:18:27.619Z,4.7
2017-12-30T06:19:27.528Z,4.78
2017-12-30T06:20:27.014Z,4.74
2017-12-30T06:21:27.265Z,4.89
2017-12-30T06:22:27.253Z,4.84
2017-12-30T06:23:26.991Z,4.89
2017-12-30T06:24:27.511Z,4.82
2017-12-30T06:25:27.486Z,4.96
2017-12-30T06:26:27.220Z,4.94
2017-12-30T06:27:27.212Z,4.84
2017-12-30T06:28:27.464Z,4.89
2017-12-30T06:29:27.445Z,4.89
2017-12-30T06:30:27.436Z,4.9
2017-12-30T06:31:27.175Z,4.96
2017-12-30T06:32:27.167Z,4.94
2017-12-30T06:33:27.165Z,4.96
2017-12-30T06:34:27.157Z,4.99
2017-12-30T06:35:27.141Z,5.05
2017-12-30T06:36:26.901Z,5.02
2017-12-30T06:37:26.889Z,5
2017-12-30T06:38:27.370Z,5
2017-12-30T06:39:27.359Z,5.02
2017-12-30T06:40:27.352Z,5
2017-12-30T06:41:27.348Z,5
2017-12-30T06:42:26.835Z,4.93
2017-12-30T06:43:27.086Z,4.96
2017-12-30T06:44:27.349Z,5.05
2017-12-30T06:45:27.071Z,5.05
2017-12-30T06:46:27.308Z,5.08
2017-12-30T06:47:27.295Z,5.05
2017-12-30T06:48:27.324Z,5.11
2017-12-30T06:49:27.084Z,5.07
2017-12-30T06:50:26.765Z,5.17
2017-12-30T06:51:27.034Z,5.11
2017-12-30T06:52:27.002Z,5.11
2017-12-30T06:53:27.049Z,5.2
2017-12-30T06:54:26.735Z,5.12
2017-12-30T06:55:26.726Z,5.12
2017-12-30T06:56:26.732Z,5.1
2017-12-30T06:57:27.215Z,5.07
2017-12-30T06:58:27.204Z,5.12
2017-12-30T06:59:26.696Z,5.12
2017-12-30T07:00:26.947Z,5.12
2017-12-30T07:01:27.189Z,5.12
2017-12-30T07:02:27.178Z,5.15
2017-12-30T07:03:27.170Z,5.15
2017-12-30T07:04:27.956Z,5.08
2017-12-30T07:05:26.907Z,5.11
2017-12-30T07:06:27.163Z,5.08
2017-12-30T07:07:27.130Z,5.1
2017-12-30T07:08:26.897Z,5.1
2017-12-30T07:09:26.867Z,5.05
2017-12-30T07:10:27.109Z,5.14
2017-12-30T07:11:26.865Z,5.02
2017-12-30T07:12:27.104Z,4.99
2017-12-30T07:13:27.107Z,4.97
2017-12-30T07:14:26.644Z,4.97
2017-12-30T07:15:27.068Z,4.93
2017-12-30T07:16:26.847Z,4.86
2017-12-30T07:17:26.846Z,4.93
2017-12-30T07:18:26.912Z,4.93
2017-12-30T07:19:26.683Z,4.92
2017-12-30T07:20:26.798Z,4.82
2017-12-30T07:21:26.801Z,4.78
2017-12-30T07:22:26.760Z,4.82
2017-12-30T07:23:27.007Z,4.78
2017-12-30T07:24:26.747Z,4.77
2017-12-30T07:25:26.748Z,4.71
2017-12-30T07:26:26.992Z,4.68
2017-12-30T07:27:26.730Z,4.71
2017-12-30T07:28:26.723Z,4.62
2017-12-30T07:29:26.956Z,4.74
2017-12-30T07:30:26.956Z,4.77
2017-12-30T07:31:26.711Z,4.8
2017-12-30T07:32:26.934Z,4.8
2017-12-30T07:33:26.677Z,4.77
2017-12-30T07:34:27.618Z,4.77
2017-12-30T07:35:26.694Z,4.75
2017-12-30T07:36:26.905Z,4.78
2017-12-30T07:37:26.399Z,4.74
2017-12-30T07:38:26.886Z,4.75
2017-12-30T07:39:26.877Z,4.7
2017-12-30T07:40:26.635Z,4.68
2017-12-30T07:41:26.875Z,4.77
2017-12-30T07:42:26.855Z,4.73
2017-12-30T07:43:26.593Z,4.77
2017-12-30T07:44:26.845Z,4.71
2017-12-30T07:45:26.587Z,4.8
2017-12-30T07:46:26.833Z,4.78
2017-12-30T07:47:26.819Z,4.84
2017-12-30T07:48:26.809Z,4.8
2017-12-30T07:49:26.802Z,4.8
2017-12-30T07:50:26.286Z,4.87
2017-12-30T07:51:26.539Z,4.82
2017-12-30T07:52:26.518Z,4.9
2017-12-30T07:53:26.267Z,4.82
2017-12-30T07:54:26.764Z,4.84
2017-12-30T07:55:26.498Z,4.86
2017-12-30T07:56:26.506Z,4.82
2017-12-30T07:57:26.477Z,4.9
2017-12-30T07:58:26.470Z,4.78
2017-12-30T07:59:26.462Z,4.8
2017-12-30T08:00:26.451Z,4.77
2017-12-30T08:01:26.711Z,4.8
2017-12-30T08:02:26.439Z,4.77
2017-12-30T08:03:26.689Z,4.78
2017-12-30T08:04:27.474Z,4.77
2017-12-30T08:05:26.415Z,4.74
2017-12-30T08:06:26.415Z,4.78
2017-12-30T08:07:26.648Z,4.74
2017-12-30T08:08:26.389Z,4.77
2017-12-30T08:09:26.125Z,4.7
2017-12-30T08:10:26.367Z,4.75
2017-12-30T08:11:26.637Z,4.7
2017-12-30T08:12:26.362Z,4.74
2017-12-30T08:13:26.591Z,4.58
2017-12-30T08:14:26.589Z,4.63
2017-12-30T08:15:26.348Z,4.6
2017-12-30T08:16:26.333Z,4.62
2017-12-30T08:17:26.568Z,4.66
2017-12-30T08:18:26.303Z,4.56
2017-12-30T08:19:26.291Z,4.62
2017-12-30T08:20:26.367Z,4.59
2017-12-30T08:21:26.597Z,4.62
2017-12-30T08:22:26.521Z,4.58
2017-12-30T08:23:26.525Z,4.63
2017-12-30T08:24:26.501Z,4.66
2017-12-30T08:25:26.285Z,4.6
2017-12-30T08:26:26.233Z,4.6
2017-12-30T08:27:26.241Z,4.63
2017-12-30T08:28:25.964Z,4.67
2017-12-30T08:29:26.205Z,4.63
2017-12-30T08:30:26.449Z,4.6
2017-12-30T08:31:26.192Z,4.62
2017-12-30T08:32:26.430Z,4.73
2017-12-30T08:33:26.422Z,4.74
2017-12-30T08:34:26.162Z,4.77
2017-12-30T08:35:26.402Z,4.86
2017-12-30T08:37:26.394Z,4.74
2017-12-30T08:38:26.385Z,4.78
2017-12-30T08:39:26.373Z,4.75
2017-12-30T08:40:26.362Z,4.74
2017-12-30T08:41:26.106Z,4.75
2017-12-30T08:42:26.090Z,4.75
2017-12-30T08:43:25.837Z,4.77
2017-12-30T08:44:26.076Z,4.77
2017-12-30T08:45:26.328Z,4.84
2017-12-30T08:46:26.062Z,4.77
2017-12-30T08:47:26.049Z,4.77
2017-12-30T08:48:26.295Z,4.8
2017-12-30T08:49:26.284Z,4.86
2017-12-30T08:50:26.174Z,4.84
2017-12-30T08:51:26.017Z,4.82
2017-12-30T08:52:26.014Z,4.87
2017-12-30T08:53:26.019Z,4.94
2017-12-30T08:54:26.009Z,4.87
2017-12-30T08:55:25.731Z,4.84
2017-12-30T08:56:26.225Z,4.84
2017-12-30T08:57:26.265Z,4.94
2017-12-30T08:58:26.221Z,4.92
2017-12-30T08:59:26.203Z,5
2017-12-30T09:00:26.202Z,5
2017-12-30T09:01:26.183Z,5.02
2017-12-30T09:02:25.938Z,5.08
2017-12-30T09:03:26.168Z,5.04
2017-12-30T09:04:25.909Z,5.04
2017-12-30T09:05:26.206Z,5.04
2017-12-30T09:06:26.144Z,5.04
2017-12-30T09:07:26.142Z,5
2017-12-30T09:08:25.874Z,5.02
2017-12-30T09:09:25.626Z,5.04
2017-12-30T09:10:26.109Z,5.1
2017-12-30T09:11:25.597Z,5.08
2017-12-30T09:12:25.593Z,5.15
2017-12-30T09:13:26.083Z,5.18
2017-12-30T09:14:25.826Z,5.23
2017-12-30T09:15:26.069Z,5.29
2017-12-30T09:16:25.818Z,5.3
2017-12-30T09:17:26.047Z,5.35
2017-12-30T09:18:25.799Z,5.38
2017-12-30T09:19:25.788Z,5.39
2017-12-30T09:20:26.029Z,5.47
2017-12-30T09:21:26.024Z,5.54
2017-12-30T09:22:25.762Z,5.59
2017-12-30T09:23:25.514Z,5.57
2017-12-30T09:24:25.991Z,5.51
2017-12-30T09:25:25.985Z,5.62
2017-12-30T09:26:25.981Z,5.56
2017-12-30T09:27:25.976Z,5.62
2017-12-30T09:28:25.724Z,5.62
2017-12-30T09:29:25.721Z,5.62
2017-12-30T09:30:26.756Z,5.73
2017-12-30T09:31:25.686Z,5.69
2017-12-30T09:32:25.940Z,5.66
2017-12-30T09:33:25.947Z,5.65
2017-12-30T09:34:25.667Z,5.68
2017-12-30T09:35:28.608Z,5.72
2017-12-30T09:36:25.661Z,5.68
2017-12-30T09:37:25.897Z,5.71
2017-12-30T09:38:25.894Z,5.71
2017-12-30T09:39:25.898Z,5.72
2017-12-30T09:40:25.382Z,5.76
2017-12-30T09:41:25.617Z,5.75
2017-12-30T09:42:25.863Z,5.72
2017-12-30T09:43:25.600Z,5.86
2017-12-30T09:44:25.594Z,5.8
2017-12-30T09:45:25.590Z,5.83
2017-12-30T09:46:25.577Z,5.86
2017-12-30T09:47:25.577Z,5.94
2017-12-30T09:48:25.575Z,5.87
2017-12-30T09:49:25.299Z,5.94
2017-12-30T09:50:25.796Z,5.91
2017-12-30T09:51:25.789Z,5.93
2017-12-30T09:52:25.546Z,5.98
2017-12-30T09:53:25.530Z,5.98
2017-12-30T09:54:25.769Z,6.04
2017-12-30T09:55:25.263Z,6.01
2017-12-30T09:56:25.504Z,5.99
2017-12-30T09:57:25.242Z,6.08
2017-12-30T09:58:25.492Z,6.19
2017-12-30T09:59:25.481Z,6.09
2017-12-30T10:00:25.725Z,6.11
2017-12-30T10:01:25.207Z,6.16
2017-12-30T10:02:25.460Z,6.14
2017-12-30T10:03:25.478Z,6.09
2017-12-30T10:04:25.704Z,6.14
2017-12-30T10:05:26.495Z,6.16
2017-12-30T10:06:25.430Z,6.05
2017-12-30T10:07:25.680Z,6.09
2017-12-30T10:08:25.665Z,6.07
2017-12-30T10:09:25.415Z,6.07
2017-12-30T10:10:25.431Z,6.08
2017-12-30T10:11:25.637Z,6.01
2017-12-30T10:12:25.384Z,6.12
2017-12-30T10:13:25.380Z,6.08
2017-12-30T10:14:25.369Z,6.12
2017-12-30T10:15:25.613Z,6.07
2017-12-30T10:16:25.607Z,6.12
2017-12-30T10:17:25.091Z,6.12
2017-12-30T10:18:25.333Z,6.2
2017-12-30T10:19:25.335Z,6.2
2017-12-30T10:20:25.076Z,6.2
2017-12-30T10:21:25.323Z,6.27
2017-12-30T10:22:25.306Z,6.36
2017-12-30T10:52:46.315Z,7.56
2017-12-30T10:53:46.316Z,7.79
2017-12-30T10:54:46.079Z,7.75
2017-12-30T10:55:46.089Z,7.82
2017-12-30T10:56:46.004Z,7.79
2017-12-30T10:57:45.990Z,7.85
2017-12-30T10:58:45.986Z,7.97
2017-12-30T10:59:45.971Z,7.87
2017-12-30T11:00:46.222Z,7.95
2017-12-30T11:01:45.965Z,7.94
2017-12-30T11:02:46.199Z,8
2017-12-30T11:03:46.199Z,8.08
2017-12-30T11:04:45.935Z,7.93
2017-12-30T11:05:46.203Z,8.05
2017-12-30T11:06:45.912Z,8.03
2017-12-30T11:07:45.913Z,7.95
2017-12-30T11:08:46.158Z,7.97
2017-12-30T11:09:45.908Z,8
2017-12-30T11:10:45.885Z,7.93
2017-12-30T11:11:46.135Z,8
2017-12-30T11:12:45.638Z,7.91
2017-12-30T11:13:46.115Z,7.93
2017-12-30T11:14:45.883Z,7.91
2017-12-30T11:15:45.606Z,8
2017-12-30T11:16:46.100Z,7.93
2017-12-30T11:17:45.846Z,8.03
2017-12-30T11:18:45.839Z,8.06
2017-12-30T11:19:46.096Z,8.09
2017-12-30T11:20:45.831Z,8.03
2017-12-30T11:21:45.913Z,8.08
2017-12-30T11:22:46.111Z,8.01
2017-12-30T11:23:45.814Z,8.18
2017-12-30T11:24:45.811Z,8.19
2017-12-30T11:25:45.553Z,8.1
2017-12-30T11:26:45.856Z,8.18
2017-12-30T11:27:46.112Z,8.23
2017-12-30T11:28:45.790Z,8.27
2017-12-30T11:29:45.775Z,8.24
2017-12-30T11:30:45.766Z,8.3
2017-12-30T11:31:46.050Z,8.37
2017-12-30T11:32:46.011Z,8.37
2017-12-30T11:33:45.753Z,8.38
2017-12-30T11:34:45.749Z,8.37
2017-12-30T11:35:45.739Z,8.31
2017-12-30T11:36:45.733Z,8.36
2017-12-30T11:37:45.742Z,8.34
2017-12-30T11:38:45.985Z,8.28
2017-12-30T11:39:45.982Z,8.33
2017-12-30T11:40:45.717Z,8.3
2017-12-30T11:41:46.006Z,8.31
2017-12-30T11:42:45.707Z,8.41
2017-12-30T11:43:45.456Z,8.27
2017-12-30T11:44:45.962Z,8.3
2017-12-30T11:45:45.687Z,8.28
2017-12-30T11:46:45.684Z,8.33
2017-12-30T11:47:45.705Z,8.31
2017-12-30T11:48:45.678Z,8.31
2017-12-30T11:49:45.933Z,8.31
2017-12-30T11:50:45.667Z,8.42
2017-12-30T11:51:45.657Z,8.44
2017-12-30T11:52:45.653Z,8.28
2017-12-30T11:53:45.907Z,8.45
2017-12-30T11:54:45.919Z,8.45
2017-12-30T11:55:45.720Z,8.38
2017-12-30T11:56:45.909Z,8.42
2017-12-30T11:57:45.935Z,8.49
2017-12-30T11:58:45.623Z,8.49
2017-12-30T11:59:45.617Z,8.51
2017-12-30T12:00:45.883Z,8.46
2017-12-30T12:01:45.867Z,8.45
2017-12-30T12:02:45.605Z,8.38
2017-12-30T12:03:45.595Z,8.49
2017-12-30T12:04:45.615Z,8.6
2017-12-30T12:05:45.852Z,8.58
2017-12-30T12:06:45.344Z,8.51
2017-12-30T12:07:45.598Z,8.6
2017-12-30T12:08:45.572Z,8.61
2017-12-30T12:09:45.821Z,8.61
2017-12-30T12:10:45.569Z,8.63
2017-12-30T12:11:45.304Z,8.6
2017-12-30T12:12:45.808Z,8.6
2017-12-30T12:13:45.812Z,8.61
2017-12-30T12:14:45.797Z,8.64
2017-12-30T12:15:45.540Z,8.58
2017-12-30T12:16:45.539Z,8.66
2017-12-30T12:17:45.536Z,8.55
2017-12-30T12:18:45.861Z,8.56
2017-12-30T12:19:45.758Z,8.67
2017-12-30T12:20:45.762Z,8.73
2017-12-30T12:21:45.500Z,8.74
2017-12-30T12:22:45.691Z,8.74
2017-12-30T12:23:45.745Z,8.79
2017-12-30T12:24:45.495Z,8.78
2017-12-30T12:25:45.492Z,8.92
2017-12-30T12:26:45.224Z,8.88
2017-12-30T12:27:45.216Z,8.89
2017-12-30T12:28:45.717Z,8.85
2017-12-30T12:29:45.467Z,8.84
2017-12-30T12:30:45.463Z,8.94
2017-12-30T12:31:45.448Z,8.89
2017-12-30T12:32:45.717Z,8.91
2017-12-30T12:33:45.719Z,8.95
2017-12-30T12:34:45.187Z,9.02
2017-12-30T12:35:45.687Z,8.95
2017-12-30T12:36:45.684Z,8.91
2017-12-30T12:37:45.672Z,8.97
2017-12-30T12:38:45.670Z,8.99
2017-12-30T12:39:45.662Z,9
2017-12-30T12:40:45.665Z,9.1
2017-12-30T12:41:45.410Z,9.02
2017-12-30T12:42:45.403Z,9.1
2017-12-30T12:43:45.650Z,9.11
2017-12-30T12:44:45.397Z,9.02
2017-12-30T12:45:45.493Z,9.11
2017-12-30T12:46:45.632Z,9.16
2017-12-30T12:47:45.626Z,9.13
2017-12-30T12:48:45.382Z,9.16
2017-12-30T12:49:45.118Z,9.18
2017-12-30T12:50:45.111Z,9.21
2017-12-30T12:51:45.109Z,9.19
2017-12-30T12:52:47.206Z,9.18
2017-12-30T12:53:45.604Z,9.16
2017-12-30T12:54:45.344Z,9.19
2017-12-30T12:55:45.088Z,9.22
2017-12-30T12:56:45.336Z,9.23
2017-12-30T12:57:45.340Z,9.23
2017-12-30T12:58:45.346Z,9.28
2017-12-30T12:59:45.576Z,9.31
2017-12-30T13:00:45.592Z,9.13
2017-12-30T13:01:45.589Z,9.29
2017-12-30T13:02:45.069Z,9.32
2017-12-30T13:03:45.555Z,9.32
2017-12-30T13:04:45.561Z,9.31
2017-12-30T13:05:45.313Z,9.31
2017-12-30T13:06:45.295Z,9.29
2017-12-30T13:07:45.039Z,9.43
2017-12-30T13:08:45.535Z,9.47
2017-12-30T13:09:45.533Z,9.46
2017-12-30T13:10:45.287Z,9.54
2017-12-30T13:11:45.520Z,9.59
2017-12-30T13:12:45.293Z,9.51
2017-12-30T13:13:45.541Z,9.51
2017-12-30T13:14:45.550Z,9.59
2017-12-30T13:15:45.509Z,9.64
2017-12-30T13:16:45.269Z,9.64
2017-12-30T13:17:45.244Z,9.68
2017-12-30T13:18:45.004Z,9.65
2017-12-30T13:19:45.490Z,9.68
2017-12-30T13:20:45.488Z,9.69
2017-12-30T13:21:45.484Z,9.73
2017-12-30T13:22:45.485Z,9.62
2017-12-30T13:23:45.247Z,9.62
2017-12-30T13:24:45.230Z,9.58
2017-12-30T13:25:45.212Z,9.64
2017-12-30T13:26:45.644Z,9.58
2017-12-30T13:27:45.468Z,9.61
2017-12-30T13:28:45.211Z,9.58
2017-12-30T13:29:44.947Z,9.56
2017-12-30T13:30:45.466Z,9.55
2017-12-30T13:31:45.444Z,9.56
2017-12-30T13:32:45.188Z,9.55
2017-12-30T13:33:44.942Z,9.55
2017-12-30T13:34:45.179Z,9.58
2017-12-30T13:35:45.434Z,9.55
2017-12-30T13:36:45.422Z,9.5
2017-12-30T13:37:45.172Z,9.51
2017-12-30T13:38:45.431Z,9.41
2017-12-30T13:39:45.423Z,9.41
2017-12-30T13:40:45.417Z,9.44
2017-12-30T13:41:45.432Z,9.44
2017-12-30T13:42:44.890Z,9.43
2017-12-30T13:43:45.185Z,9.56
2017-12-30T13:44:45.405Z,9.5
2017-12-30T13:45:45.452Z,9.55
2017-12-30T13:46:45.379Z,9.5
2017-12-30T13:47:45.157Z,9.44
2017-12-30T13:48:45.384Z,9.44
2017-12-30T13:49:45.111Z,9.44
2017-12-30T13:50:45.108Z,9.44
2017-12-30T13:51:45.355Z,9.43
2017-12-30T13:52:45.114Z,9.44